Time;durP1;ratioP1;P1;durP2;ratioP2;P2;SDS_P1;SDS_P2;PMS_P1;PMS_P2;Temp;Humidity;BMP_temperature;BMP_pressure;BME280_temperature;BME280_humidity;BME280_pressure;Samples;Min_cycle;Max_cycle;Signal;HPM_P1;HPM_P2
2023/07/08 00:00:45;;;;;;;;;;;20.90;58.10;;;;;;4970065;28;19997;-79
2023/07/08 00:03:10;;;;;;;;;;;20.90;58.20;;;;;;4968900;28;19910;-80
2023/07/08 00:05:36;;;;;;;;;;;20.70;58.90;;;;;;4967836;28;19917;-79
2023/07/08 00:08:02;;;;;;;;;;;20.90;58.00;;;;;;4969066;28;19911;-80
2023/07/08 00:10:28;;;;;;;;;;;20.90;58.10;;;;;;4970945;28;19925;-81
2023/07/08 00:12:55;;;;;;;;;;;20.90;58.20;;;;;;4972098;28;19964;-81
2023/07/08 00:15:22;;;;;;;;;;;20.70;59.90;;;;;;4971123;28;19914;-79
2023/07/08 00:17:47;;;;;;;;;;;20.80;58.50;;;;;;4972410;28;19925;-81
2023/07/08 00:20:19;;;;;;;;;;;20.80;58.50;;;;;;4970821;28;19910;-80
2023/07/08 00:22:46;;;;;;;;;;;20.80;58.80;;;;;;4972206;28;20428;-80
2023/07/08 00:25:12;;;;;;;;;;;20.70;59.10;;;;;;4974205;28;19914;-79
2023/07/08 00:27:38;;;;;;;;;;;20.70;59.00;;;;;;4981086;28;19944;-79
2023/07/08 00:30:14;;;;;;;;;;;20.60;58.90;;;;;;4997954;28;19914;-80
2023/07/08 00:32:41;;;;;;;;;;;20.70;59.50;;;;;;4977709;28;19949;-80
2023/07/08 00:35:07;;;;;;;;;;;20.60;58.90;;;;;;4971070;28;19910;-82
2023/07/08 00:37:32;;;;;;;;;;;20.60;59.30;;;;;;4971406;28;20280;-81
2023/07/08 00:39:58;;;;;;;;;;;20.50;60.30;;;;;;4973220;28;20364;-81
2023/07/08 00:42:24;;;;;;;;;;;20.60;59.40;;;;;;4974032;28;19940;-79
2023/07/08 00:44:49;;;;;;;;;;;20.60;59.40;;;;;;4974530;28;19945;-81
2023/07/08 00:47:15;;;;;;;;;;;20.50;59.60;;;;;;4975338;28;19930;-81
2023/07/08 00:49:54;;;;;;;;;;;20.60;58.90;;;;;;4973647;28;19914;-80
2023/07/08 00:52:22;;;;;;;;;;;20.60;59.20;;;;;;4974882;28;20020;-81
2023/07/08 00:54:55;;;;;;;;;;;20.50;59.90;;;;;;4974493;28;19926;-81
2023/07/08 00:57:22;;;;;;;;;;;20.50;60.30;;;;;;4973637;28;20579;-80
2023/07/08 00:59:51;;;;;;;;;;;20.60;59.20;;;;;;4973396;28;19954;-81
2023/07/08 01:02:17;;;;;;;;;;;20.50;60.20;;;;;;4973037;28;20362;-81
2023/07/08 01:04:50;;;;;;;;;;;20.40;59.70;;;;;;4972099;28;20407;-80
2023/07/08 01:07:21;;;;;;;;;;;20.40;60.90;;;;;;4974767;28;19911;-81
2023/07/08 01:09:47;;;;;;;;;;;20.50;59.30;;;;;;4988389;28;20012;-81
2023/07/08 01:12:16;;;;;;;;;;;20.60;59.50;;;;;;4972361;28;19910;-80
2023/07/08 01:14:42;;;;;;;;;;;20.60;59.20;;;;;;4973824;28;19910;-79
2023/07/08 01:17:13;;;;;;;;;;;20.50;59.30;;;;;;4973772;28;19914;-81
2023/07/08 01:19:40;;;;;;;;;;;20.30;60.00;;;;;;4972352;28;19942;-81
2023/07/08 01:22:05;;;;;;;;;;;20.50;59.80;;;;;;4974018;28;20480;-81
2023/07/08 01:24:32;;;;;;;;;;;20.30;60.10;;;;;;4971183;28;20014;-80
2023/07/08 01:26:57;;;;;;;;;;;20.20;60.50;;;;;;4973560;28;20000;-81
2023/07/08 01:29:23;;;;;;;;;;;20.10;60.60;;;;;;4973204;28;19956;-81
2023/07/08 01:31:49;;;;;;;;;;;20.20;60.20;;;;;;4973155;28;19921;-81
2023/07/08 01:34:15;;;;;;;;;;;20.10;61.50;;;;;;4969708;28;20421;-80
2023/07/08 01:36:44;;;;;;;;;;;20.20;60.80;;;;;;4971849;28;20263;-81
2023/07/08 01:39:17;;;;;;;;;;;20.10;61.00;;;;;;4971411;28;20335;-81
2023/07/08 01:41:43;;;;;;;;;;;20.00;61.80;;;;;;4972714;28;19955;-80
2023/07/08 01:44:19;;;;;;;;;;;19.80;62.70;;;;;;4972534;28;19921;-80
2023/07/08 01:46:44;;;;;;;;;;;19.80;62.10;;;;;;4986777;28;20009;-80
2023/07/08 01:49:10;;;;;;;;;;;19.90;61.10;;;;;;4987636;28;19961;-81
2023/07/08 01:51:35;;;;;;;;;;;19.70;61.70;;;;;;4971040;28;19914;-81
2023/07/08 01:54:01;;;;;;;;;;;19.70;62.40;;;;;;4970240;28;19917;-81
2023/07/08 01:56:26;;;;;;;;;;;19.60;62.30;;;;;;4972107;28;20011;-80
2023/07/08 01:58:52;;;;;;;;;;;19.60;61.90;;;;;;4971196;28;19924;-80
2023/07/08 02:01:17;;;;;;;;;;;19.50;62.80;;;;;;4971493;28;20318;-81
2023/07/08 02:03:43;;;;;;;;;;;19.50;63.00;;;;;;4972398;28;19910;-81
2023/07/08 02:06:08;;;;;;;;;;;19.50;63.00;;;;;;4971015;28;19914;-81
2023/07/08 02:08:33;;;;;;;;;;;19.60;62.50;;;;;;4971458;28;19963;-81
2023/07/08 02:10:59;;;;;;;;;;;19.50;62.80;;;;;;4973053;28;19961;-79
2023/07/08 02:13:25;;;;;;;;;;;19.40;63.80;;;;;;4972221;28;19914;-80
2023/07/08 02:15:51;;;;;;;;;;;19.20;64.10;;;;;;4971065;28;19914;-81
2023/07/08 02:18:18;;;;;;;;;;;19.10;64.50;;;;;;4970473;28;19918;-80
2023/07/08 02:20:44;;;;;;;;;;;19.10;64.80;;;;;;4970778;28;19914;-81
2023/07/08 02:23:09;;;;;;;;;;;19.10;64.80;;;;;;4970714;28;19925;-81
2023/07/08 02:25:35;;;;;;;;;;;19.10;65.40;;;;;;4970660;28;19921;-81
2023/07/08 02:28:00;;;;;;;;;;;19.00;65.20;;;;;;4971241;28;19930;-80
2023/07/08 02:30:26;;;;;;;;;;;19.00;64.90;;;;;;4987295;28;19915;-80
2023/07/08 02:32:58;;;;;;;;;;;19.00;65.20;;;;;;4972521;28;19917;-78
2023/07/08 02:35:25;;;;;;;;;;;19.00;64.70;;;;;;4972320;28;20532;-79
2023/07/08 02:37:51;;;;;;;;;;;19.00;64.90;;;;;;4972468;28;19914;-81
2023/07/08 02:40:17;;;;;;;;;;;18.90;65.60;;;;;;4970845;28;19910;-81
2023/07/08 02:42:42;;;;;;;;;;;18.90;66.10;;;;;;4987272;28;20263;-81
2023/07/08 02:45:08;;;;;;;;;;;18.80;65.60;;;;;;4984178;28;19914;-80
2023/07/08 02:47:33;;;;;;;;;;;18.90;66.20;;;;;;4985103;28;19918;-78
2023/07/08 02:49:59;;;;;;;;;;;18.90;66.00;;;;;;4978410;28;19921;-81
2023/07/08 02:52:24;;;;;;;;;;;18.80;66.60;;;;;;4974288;28;20390;-81
2023/07/08 02:54:50;;;;;;;;;;;18.80;66.70;;;;;;4973485;28;20040;-81
2023/07/08 02:57:15;;;;;;;;;;;18.80;66.70;;;;;;4972674;28;19917;-79
2023/07/08 02:59:41;;;;;;;;;;;18.70;66.90;;;;;;4972835;28;20381;-78
2023/07/08 03:02:06;;;;;;;;;;;18.70;66.60;;;;;;4973998;28;19910;-81
2023/07/08 03:04:32;;;;;;;;;;;18.60;66.90;;;;;;4972518;28;19925;-82
2023/07/08 03:06:57;;;;;;;;;;;18.60;66.80;;;;;;4972268;28;19987;-79
2023/07/08 03:09:23;;;;;;;;;;;18.60;67.40;;;;;;4972531;28;20028;-81
2023/07/08 03:11:48;;;;;;;;;;;18.50;67.70;;;;;;4974044;28;19922;-81
2023/07/08 03:14:13;;;;;;;;;;;18.50;68.30;;;;;;4972261;28;19917;-81
2023/07/08 03:16:39;;;;;;;;;;;18.40;68.50;;;;;;4973921;28;19953;-81
2023/07/08 03:19:05;;;;;;;;;;;18.40;68.20;;;;;;4973960;28;19932;-81
2023/07/08 03:21:31;;;;;;;;;;;18.40;68.50;;;;;;4971936;28;20449;-81
2023/07/08 03:23:56;;;;;;;;;;;18.30;68.60;;;;;;4971533;28;19954;-81
2023/07/08 03:26:23;;;;;;;;;;;18.30;69.20;;;;;;4972527;28;19910;-80
2023/07/08 03:28:50;;;;;;;;;;;18.20;69.20;;;;;;4971586;28;20662;-81
2023/07/08 03:31:16;;;;;;;;;;;18.20;69.40;;;;;;4972355;28;19914;-81
2023/07/08 03:33:41;;;;;;;;;;;18.20;69.70;;;;;;4973178;28;20435;-81
2023/07/08 03:36:22;;;;;;;;;;;18.20;69.60;;;;;;4972042;28;20005;-81
2023/07/08 03:38:48;;;;;;;;;;;18.20;69.20;;;;;;4987658;28;19922;-81
2023/07/08 03:41:14;;;;;;;;;;;18.10;69.80;;;;;;4987805;28;19914;-81
2023/07/08 03:43:39;;;;;;;;;;;18.10;69.60;;;;;;4972418;28;19910;-81
2023/07/08 03:46:05;;;;;;;;;;;18.10;69.20;;;;;;4976539;28;19910;-79
2023/07/08 03:48:30;;;;;;;;;;;18.10;69.30;;;;;;4982349;28;19921;-79
2023/07/08 03:50:56;;;;;;;;;;;18.20;68.60;;;;;;4983056;28;19953;-79
2023/07/08 03:53:21;;;;;;;;;;;18.10;69.00;;;;;;4977110;28;20293;-81
2023/07/08 03:55:46;;;;;;;;;;;18.20;69.20;;;;;;4971099;28;20035;-81
2023/07/08 03:58:12;;;;;;;;;;;18.20;68.70;;;;;;4972012;28;19964;-81
2023/07/08 04:00:37;;;;;;;;;;;18.30;68.10;;;;;;4972029;28;19933;-81
2023/07/08 04:03:03;;;;;;;;;;;18.20;68.90;;;;;;4971489;28;19910;-80
2023/07/08 04:05:28;;;;;;;;;;;18.20;68.40;;;;;;4970822;28;19914;-81
2023/07/08 04:07:54;;;;;;;;;;;18.10;68.50;;;;;;4969672;28;19910;-80
2023/07/08 04:10:20;;;;;;;;;;;18.20;69.10;;;;;;4968054;28;19972;-80
2023/07/08 04:12:45;;;;;;;;;;;18.20;69.10;;;;;;4968413;28;20427;-79
2023/07/08 04:15:11;;;;;;;;;;;18.20;69.10;;;;;;4967235;28;20358;-82
2023/07/08 04:17:47;;;;;;;;;;;18.20;69.60;;;;;;4971386;28;20420;-81
2023/07/08 04:20:14;;;;;;;;;;;18.20;69.60;;;;;;4971556;28;19910;-80
2023/07/08 04:22:40;;;;;;;;;;;18.30;68.50;;;;;;4971126;28;19998;-79
2023/07/08 04:25:05;;;;;;;;;;;18.30;69.40;;;;;;4971216;28;19949;-81
2023/07/08 04:27:31;;;;;;;;;;;18.20;69.80;;;;;;4970718;28;20025;-80
2023/07/08 04:29:57;;;;;;;;;;;18.30;68.90;;;;;;4972208;28;19921;-79
2023/07/08 04:32:24;;;;;;;;;;;18.30;69.50;;;;;;4971392;28;20001;-79
2023/07/08 04:34:50;;;;;;;;;;;18.30;69.20;;;;;;4970248;28;19910;-79
2023/07/08 04:37:16;;;;;;;;;;;18.30;69.40;;;;;;4965266;28;20020;-79
2023/07/08 04:39:41;;;;;;;;;;;18.30;69.50;;;;;;4971933;28;19957;-78
2023/07/08 04:42:07;;;;;;;;;;;18.30;69.30;;;;;;4973136;28;19911;-80
2023/07/08 04:44:32;;;;;;;;;;;18.40;69.70;;;;;;4973413;28;19959;-81
2023/07/08 04:46:58;;;;;;;;;;;18.40;69.50;;;;;;4973735;28;20044;-81
2023/07/08 04:49:24;;;;;;;;;;;18.40;68.80;;;;;;4972291;28;20010;-81
2023/07/08 04:51:51;;;;;;;;;;;18.50;69.30;;;;;;4973241;28;20382;-80
2023/07/08 04:54:16;;;;;;;;;;;18.40;69.10;;;;;;4972696;28;20271;-79
2023/07/08 04:56:43;;;;;;;;;;;18.40;69.30;;;;;;4974956;28;19910;-81
2023/07/08 04:59:09;;;;;;;;;;;18.50;69.60;;;;;;4974579;28;19965;-81
2023/07/08 05:01:35;;;;;;;;;;;18.40;69.80;;;;;;4974136;28;19910;-79
2023/07/08 05:04:01;;;;;;;;;;;18.50;69.80;;;;;;4971770;28;19948;-80
2023/07/08 05:06:27;;;;;;;;;;;18.50;69.20;;;;;;4971888;28;19997;-80
2023/07/08 05:08:53;;;;;;;;;;;18.50;70.20;;;;;;4972115;28;20398;-81
2023/07/08 05:11:19;;;;;;;;;;;18.50;70.00;;;;;;4972140;28;19918;-80
2023/07/08 05:13:44;;;;;;;;;;;18.60;69.40;;;;;;4972306;28;19956;-81
2023/07/08 05:16:09;;;;;;;;;;;18.60;69.50;;;;;;4971521;28;19910;-81
2023/07/08 05:18:35;;;;;;;;;;;18.70;70.30;;;;;;4971919;28;19949;-79
2023/07/08 05:21:03;;;;;;;;;;;18.70;70.30;;;;;;4973812;28;19911;-81
2023/07/08 05:23:28;;;;;;;;;;;18.80;70.40;;;;;;4971974;28;20392;-80
2023/07/08 05:25:54;;;;;;;;;;;18.80;69.90;;;;;;4973368;28;19910;-81
2023/07/08 05:28:21;;;;;;;;;;;18.70;69.50;;;;;;4987485;28;19910;-79
2023/07/08 05:30:47;;;;;;;;;;;18.80;69.80;;;;;;4971990;28;19945;-80
2023/07/08 05:33:12;;;;;;;;;;;18.90;69.20;;;;;;4972072;28;19980;-80
2023/07/08 05:35:38;;;;;;;;;;;18.90;69.80;;;;;;4970467;28;19914;-81
2023/07/08 05:38:03;;;;;;;;;;;18.90;69.60;;;;;;4970091;28;19910;-81
2023/07/08 05:40:28;;;;;;;;;;;19.00;69.30;;;;;;4975371;28;20319;-80
2023/07/08 05:42:54;;;;;;;;;;;19.10;69.20;;;;;;4985272;28;19933;-80
2023/07/08 05:45:19;;;;;;;;;;;19.10;68.40;;;;;;5000997;28;19977;-79
2023/07/08 05:47:45;;;;;;;;;;;19.20;69.10;;;;;;4992546;28;19910;-81
2023/07/08 05:50:10;;;;;;;;;;;19.50;67.80;;;;;;4989155;28;20387;-78
2023/07/08 05:52:36;;;;;;;;;;;19.60;67.50;;;;;;4974256;28;19910;-79
2023/07/08 05:55:01;;;;;;;;;;;19.60;67.40;;;;;;4988378;28;20242;-81
2023/07/08 05:57:27;;;;;;;;;;;19.70;67.30;;;;;;4972242;28;19975;-79
2023/07/08 05:59:52;;;;;;;;;;;19.60;67.10;;;;;;4972509;28;19979;-81
2023/07/08 06:02:21;;;;;;;;;;;19.70;66.80;;;;;;4988551;28;20471;-81
2023/07/08 06:04:47;;;;;;;;;;;19.70;67.10;;;;;;4972767;28;20373;-81
2023/07/08 06:07:12;;;;;;;;;;;19.80;67.80;;;;;;4974394;28;20005;-81
2023/07/08 06:09:38;;;;;;;;;;;19.80;67.70;;;;;;4971947;28;20105;-81
2023/07/08 06:12:03;;;;;;;;;;;19.90;67.30;;;;;;4974021;28;20251;-79
2023/07/08 06:14:29;;;;;;;;;;;20.00;68.00;;;;;;4972495;28;19918;-81
2023/07/08 06:16:55;;;;;;;;;;;20.10;67.80;;;;;;4974471;28;19932;-81
2023/07/08 06:19:20;;;;;;;;;;;20.20;67.20;;;;;;4972502;28;19932;-80
2023/07/08 06:21:46;;;;;;;;;;;20.30;67.20;;;;;;4971337;28;19914;-80
2023/07/08 06:24:11;;;;;;;;;;;20.40;65.80;;;;;;4972126;28;20443;-80
2023/07/08 06:26:37;;;;;;;;;;;20.50;64.70;;;;;;4969903;28;19910;-81
2023/07/08 06:29:03;;;;;;;;;;;20.50;64.80;;;;;;4971304;28;19910;-81
2023/07/08 06:31:28;;;;;;;;;;;20.60;63.70;;;;;;4970606;28;20011;-81
2023/07/08 06:33:54;;;;;;;;;;;20.60;63.50;;;;;;4972533;28;20114;-80
2023/07/08 06:36:19;;;;;;;;;;;20.70;63.00;;;;;;4972036;28;19910;-80
2023/07/08 06:38:45;;;;;;;;;;;20.80;63.30;;;;;;4985137;28;19920;-79
2023/07/08 06:41:10;;;;;;;;;;;21.00;63.20;;;;;;4967652;28;19919;-79
2023/07/08 06:43:36;;;;;;;;;;;21.00;62.30;;;;;;4987224;28;20028;-81
2023/07/08 06:46:01;;;;;;;;;;;21.10;62.30;;;;;;4973704;28;19922;-81
2023/07/08 06:48:27;;;;;;;;;;;21.20;60.90;;;;;;4971683;28;19977;-80
2023/07/08 06:50:52;;;;;;;;;;;21.30;64.00;;;;;;4970788;28;19914;-81
2023/07/08 06:53:18;;;;;;;;;;;21.40;62.50;;;;;;4987362;28;19945;-77
2023/07/08 06:55:44;;;;;;;;;;;21.50;62.20;;;;;;4985222;28;19914;-81
2023/07/08 06:58:10;;;;;;;;;;;21.50;62.80;;;;;;4974818;28;19937;-80
2023/07/08 07:00:35;;;;;;;;;;;21.60;61.90;;;;;;4979793;28;19910;-80
2023/07/08 07:03:01;;;;;;;;;;;21.70;62.50;;;;;;4971936;28;20348;-81
2023/07/08 07:05:26;;;;;;;;;;;21.80;61.10;;;;;;4971476;28;19914;-80
2023/07/08 07:07:52;;;;;;;;;;;21.90;60.90;;;;;;4972922;28;19914;-81
2023/07/08 07:10:18;;;;;;;;;;;22.00;60.90;;;;;;4970635;28;20063;-81
2023/07/08 07:12:44;;;;;;;;;;;22.00;62.10;;;;;;4971398;28;19976;-81
2023/07/08 07:15:09;;;;;;;;;;;22.10;60.00;;;;;;4970714;28;19911;-81
2023/07/08 07:17:35;;;;;;;;;;;22.10;61.10;;;;;;4970730;28;19910;-81
2023/07/08 07:20:01;;;;;;;;;;;22.20;59.80;;;;;;4970688;28;19910;-81
2023/07/08 07:22:28;;;;;;;;;;;22.30;60.20;;;;;;4970976;28;19937;-81
2023/07/08 07:24:54;;;;;;;;;;;22.30;60.60;;;;;;4968449;28;19928;-81
2023/07/08 07:27:19;;;;;;;;;;;22.50;62.30;;;;;;4971718;28;20001;-81
2023/07/08 07:29:46;;;;;;;;;;;22.60;61.50;;;;;;4969581;28;19957;-81
2023/07/08 07:32:12;;;;;;;;;;;22.70;60.80;;;;;;4970498;28;19974;-82
2023/07/08 07:34:38;;;;;;;;;;;22.70;60.70;;;;;;4971121;28;19945;-81
2023/07/08 07:37:04;;;;;;;;;;;22.80;60.10;;;;;;4969185;28;19921;-80
2023/07/08 07:39:30;;;;;;;;;;;23.00;59.00;;;;;;4969408;28;19976;-82
2023/07/08 07:41:55;;;;;;;;;;;23.00;59.70;;;;;;4986783;28;20001;-81
2023/07/08 07:44:21;;;;;;;;;;;23.00;60.70;;;;;;4985095;28;19933;-78
2023/07/08 07:46:46;;;;;;;;;;;23.10;60.00;;;;;;4971226;28;19914;-82
2023/07/08 07:49:12;;;;;;;;;;;23.20;60.40;;;;;;4969848;28;20009;-81
2023/07/08 07:51:38;;;;;;;;;;;23.30;60.00;;;;;;4969086;28;19979;-81
2023/07/08 07:54:03;;;;;;;;;;;23.40;60.50;;;;;;4972917;28;19914;-81
2023/07/08 07:56:29;;;;;;;;;;;23.50;59.60;;;;;;4973495;28;19961;-78
2023/07/08 07:58:54;;;;;;;;;;;23.60;58.80;;;;;;4972528;28;20662;-81
2023/07/08 08:01:20;;;;;;;;;;;23.60;58.90;;;;;;4973421;28;19921;-81
2023/07/08 08:03:50;;;;;;;;;;;23.60;59.00;;;;;;5099006;23;19991;-89
2023/07/08 08:06:17;;;;;;;;;;;23.80;60.70;;;;;;5077282;28;19948;-89
2023/07/08 08:08:53;;;;;;;;;;;23.90;60.10;;;;;;5071420;28;19912;-88
2023/07/08 08:11:21;;;;;;;;;;;23.90;59.80;;;;;;5082290;28;19946;-88
2023/07/08 08:13:49;;;;;;;;;;;24.00;58.40;;;;;;5074859;28;20004;-88
2023/07/08 08:16:20;;;;;;;;;;;24.20;58.60;;;;;;5073722;28;19909;-88
2023/07/08 08:18:58;;;;;;;;;;;24.30;57.50;;;;;;5074140;28;19935;-88
2023/07/08 08:21:24;;;;;;;;;;;24.40;58.20;;;;;;5058846;28;20366;-88
2023/07/08 08:23:50;;;;;;;;;;;24.60;56.80;;;;;;5057482;28;19914;-88
2023/07/08 08:26:18;;;;;;;;;;;24.60;56.70;;;;;;5056759;28;20286;-89
2023/07/08 08:28:43;;;;;;;;;;;24.80;56.90;;;;;;5057429;28;19916;-86
2023/07/08 08:31:09;;;;;;;;;;;24.80;56.40;;;;;;5037969;28;19917;-85
2023/07/08 08:33:34;;;;;;;;;;;24.90;57.00;;;;;;5046903;28;19912;-86
2023/07/08 08:36:00;;;;;;;;;;;25.00;57.00;;;;;;5050162;28;19915;-87
2023/07/08 08:38:25;;;;;;;;;;;25.10;55.40;;;;;;5057988;28;19908;-87
2023/07/08 08:40:51;;;;;;;;;;;25.20;55.30;;;;;;5073876;28;19978;-88
2023/07/08 08:43:19;;;;;;;;;;;25.30;55.10;;;;;;5057394;28;19980;-87
2023/07/08 08:45:50;;;;;;;;;;;25.60;54.60;;;;;;5051643;28;19908;-87
2023/07/08 08:48:19;;;;;;;;;;;25.70;54.50;;;;;;5059612;28;19993;-87
2023/07/08 08:50:53;;;;;;;;;;;25.90;53.10;;;;;;5056142;28;19924;-86
2023/07/08 08:53:40;;;;;;;;;;;25.90;54.80;;;;;;5061799;28;19920;-89
2023/07/08 08:56:13;;;;;;;;;;;25.80;55.10;;;;;;5066869;28;19998;-89
2023/07/08 08:58:44;;;;;;;;;;;25.90;53.20;;;;;;5058792;28;19912;-87
2023/07/08 09:01:12;;;;;;;;;;;25.80;54.50;;;;;;5058512;28;19908;-86
2023/07/08 09:03:42;;;;;;;;;;;26.10;52.20;;;;;;5053623;28;19951;-86
2023/07/08 09:06:14;;;;;;;;;;;26.30;51.60;;;;;;5055452;28;19913;-86
2023/07/08 09:08:46;;;;;;;;;;;26.40;53.00;;;;;;5057497;28;19947;-86
2023/07/08 09:11:30;;;;;;;;;;;26.50;50.60;;;;;;5056716;28;20286;-87
2023/07/08 09:13:59;;;;;;;;;;;26.50;48.70;;;;;;5053589;28;20011;-85
2023/07/08 09:16:33;;;;;;;;;;;26.50;52.10;;;;;;5046883;28;19912;-86
2023/07/08 09:22:14;;;;;;;;;;;26.80;51.70;;;;;;5070960;28;20305;-84
2023/07/08 09:25:14;;;;;;;;;;;27.10;49.70;;;;;;5059895;28;19928;-89
2023/07/08 09:27:40;;;;;;;;;;;27.00;50.30;;;;;;5042369;22;19917;-80
2023/07/08 09:30:11;;;;;;;;;;;27.00;50.70;;;;;;4983630;28;19933;-80
2023/07/08 09:32:37;;;;;;;;;;;27.10;49.50;;;;;;4987059;28;19921;-80
2023/07/08 09:35:04;;;;;;;;;;;27.10;47.40;;;;;;4965396;28;19945;-80
2023/07/08 09:37:30;;;;;;;;;;;27.20;46.50;;;;;;4972692;28;19914;-80
2023/07/08 09:39:57;;;;;;;;;;;27.10;44.90;;;;;;4973499;28;19914;-80
2023/07/08 09:42:26;;;;;;;;;;;27.30;47.20;;;;;;4974049;28;20018;-80
2023/07/08 09:44:56;;;;;;;;;;;27.50;46.50;;;;;;4969467;28;20020;-80
2023/07/08 09:47:30;;;;;;;;;;;27.70;45.20;;;;;;4975512;28;19995;-80
2023/07/08 09:49:57;;;;;;;;;;;28.00;44.50;;;;;;4971906;28;19918;-79
2023/07/08 09:52:22;;;;;;;;;;;28.20;45.40;;;;;;4976593;28;19948;-80
2023/07/08 09:54:49;;;;;;;;;;;28.30;45.40;;;;;;4973129;28;20392;-81
2023/07/08 09:57:17;;;;;;;;;;;28.40;43.70;;;;;;4963582;28;19919;-81
2023/07/08 09:59:46;;;;;;;;;;;28.40;38.50;;;;;;4991862;28;19916;-82
2023/07/08 10:02:29;;;;;;;;;;;28.60;38.00;;;;;;4960352;28;19914;-79
2023/07/08 10:04:56;;;;;;;;;;;28.80;37.30;;;;;;4968901;28;20346;-80
2023/07/08 10:07:22;;;;;;;;;;;28.80;38.30;;;;;;4958364;28;19914;-81
2023/07/08 10:38:28;;;;;;;;;;;28.90;37.70;;;;;;4987091;28;20401;-81
2023/07/08 10:40:55;;;;;;;;;;;29.00;37.10;;;;;;4971948;28;19918;-80
2023/07/08 10:43:38;;;;;;;;;;;29.10;38.60;;;;;;4973770;28;19920;-80
2023/07/08 10:46:19;;;;;;;;;;;29.10;40.70;;;;;;4972760;28;19917;-80
2023/07/08 10:48:52;;;;;;;;;;;29.10;39.00;;;;;;4985632;28;20285;-80
2023/07/08 10:51:38;;;;;;;;;;;29.00;38.90;;;;;;4973348;28;19929;-80
2023/07/08 10:54:27;;;;;;;;;;;28.90;37.70;;;;;;4973168;28;19921;-80
2023/07/08 10:57:03;;;;;;;;;;;29.00;36.80;;;;;;4975653;28;19914;-80
2023/07/08 10:59:37;;;;;;;;;;;28.90;36.80;;;;;;4985921;28;19914;-80
2023/07/08 11:02:22;;;;;;;;;;;28.90;37.50;;;;;;4983606;28;19923;-79
2023/07/08 11:04:54;;;;;;;;;;;28.90;39.60;;;;;;4982077;28;19995;-78
2023/07/08 11:07:49;;;;;;;;;;;29.10;38.70;;;;;;4982168;28;20048;-79
2023/07/08 11:10:18;;;;;;;;;;;29.30;36.30;;;;;;4982846;28;19938;-78
2023/07/08 11:13:01;;;;;;;;;;;29.40;37.90;;;;;;4980708;28;19914;-79
2023/07/08 11:15:30;;;;;;;;;;;29.50;36.70;;;;;;5002899;23;19930;-88
2023/07/08 11:18:16;;;;;;;;;;;29.40;36.90;;;;;;5024668;23;19926;-79
2023/07/08 11:20:55;;;;;;;;;;;29.60;34.80;;;;;;4981332;28;19918;-80
2023/07/08 11:23:53;;;;;;;;;;;29.60;35.60;;;;;;5013573;28;19969;-79
2023/07/08 11:26:22;;;;;;;;;;;29.80;35.20;;;;;;5018906;28;19914;-80
2023/07/08 11:28:49;;;;;;;;;;;29.70;38.00;;;;;;5012421;28;19932;-78
2023/07/08 11:31:14;;;;;;;;;;;29.80;39.50;;;;;;5006125;28;19990;-80
2023/07/08 11:33:41;;;;;;;;;;;29.80;40.10;;;;;;5004193;28;20355;-80
2023/07/08 11:36:08;;;;;;;;;;;29.80;37.20;;;;;;5012239;28;19913;-79
2023/07/08 11:38:38;;;;;;;;;;;29.80;39.00;;;;;;4998310;28;20015;-80
2023/07/08 11:41:12;;;;;;;;;;;29.80;37.00;;;;;;5006118;28;19928;-79
2023/07/08 11:43:42;;;;;;;;;;;29.80;37.60;;;;;;4985884;28;20673;-79
2023/07/08 11:46:13;;;;;;;;;;;29.80;36.30;;;;;;5005888;28;20000;-80
2023/07/08 11:48:42;;;;;;;;;;;30.00;34.40;;;;;;4996657;28;19953;-81
2023/07/08 11:51:08;;;;;;;;;;;30.00;36.90;;;;;;5010716;28;20382;-80
2023/07/08 11:53:35;;;;;;;;;;;30.00;36.40;;;;;;5008131;28;20016;-79
2023/07/08 11:56:02;;;;;;;;;;;30.10;35.50;;;;;;5005406;28;20345;-79
2023/07/08 11:58:29;;;;;;;;;;;30.10;35.10;;;;;;4999572;28;19920;-81
2023/07/08 12:00:58;;;;;;;;;;;30.00;36.50;;;;;;5006920;28;20063;-81
2023/07/08 12:03:30;;;;;;;;;;;30.10;35.20;;;;;;5008476;28;19953;-81
2023/07/08 12:05:56;;;;;;;;;;;30.20;35.50;;;;;;4994944;28;20312;-80
2023/07/08 12:08:32;;;;;;;;;;;30.30;34.30;;;;;;4987006;28;19914;-80
2023/07/08 12:10:58;;;;;;;;;;;30.50;35.70;;;;;;4992122;28;19921;-80
2023/07/08 12:13:24;;;;;;;;;;;30.30;33.70;;;;;;5000309;28;19913;-78
2023/07/08 12:15:50;;;;;;;;;;;30.30;37.50;;;;;;4998599;28;19938;-80
2023/07/08 12:18:18;;;;;;;;;;;30.20;34.70;;;;;;5000320;28;19943;-80
2023/07/08 12:21:02;;;;;;;;;;;30.10;33.90;;;;;;5007567;28;19920;-81
2023/07/08 12:23:28;;;;;;;;;;;30.30;35.00;;;;;;4991774;28;20004;-79
2023/07/08 12:25:55;;;;;;;;;;;30.30;35.90;;;;;;4991720;28;20054;-80
2023/07/08 12:28:21;;;;;;;;;;;30.40;33.10;;;;;;4986935;28;20421;-80
2023/07/08 12:30:47;;;;;;;;;;;30.50;37.10;;;;;;5001554;28;20038;-80
2023/07/08 12:33:32;;;;;;;;;;;30.50;34.40;;;;;;5006393;28;19920;-80
2023/07/08 12:35:59;;;;;;;;;;;30.40;36.20;;;;;;5003233;28;19971;-80
2023/07/08 12:38:36;;;;;;;;;;;30.40;35.40;;;;;;4994434;28;20319;-80
2023/07/08 12:41:08;;;;;;;;;;;30.50;33.60;;;;;;5011705;28;19909;-80
2023/07/08 12:43:33;;;;;;;;;;;30.40;32.70;;;;;;5008970;28;20000;-80
2023/07/08 12:45:59;;;;;;;;;;;30.40;32.90;;;;;;5010005;28;19963;-80
2023/07/08 12:48:24;;;;;;;;;;;30.50;33.80;;;;;;5013598;28;19943;-80
2023/07/08 12:50:50;;;;;;;;;;;30.30;34.30;;;;;;5013363;28;19985;-80
2023/07/08 12:53:16;;;;;;;;;;;30.50;37.10;;;;;;4996969;28;19918;-80
2023/07/08 12:55:43;;;;;;;;;;;30.40;34.50;;;;;;5012127;28;19909;-80
2023/07/08 12:58:13;;;;;;;;;;;30.40;38.80;;;;;;5012631;28;19916;-80
2023/07/08 13:00:39;;;;;;;;;;;30.40;37.00;;;;;;5015851;28;19917;-80
2023/07/08 13:03:06;;;;;;;;;;;30.50;35.70;;;;;;4993347;28;19913;-80
2023/07/08 13:05:32;;;;;;;;;;;30.50;35.40;;;;;;4992947;28;19909;-80
2023/07/08 13:07:58;;;;;;;;;;;30.60;36.50;;;;;;4987318;28;20000;-81
2023/07/08 13:10:25;;;;;;;;;;;30.60;33.30;;;;;;5010585;28;20039;-81
2023/07/08 13:13:12;;;;;;;;;;;30.60;35.20;;;;;;4992490;28;19921;-81
2023/07/08 13:15:42;;;;;;;;;;;30.60;33.90;;;;;;4997941;28;19933;-79
2023/07/08 13:18:14;;;;;;;;;;;30.60;35.70;;;;;;4987127;28;19914;-81
2023/07/08 13:20:40;;;;;;;;;;;30.70;33.80;;;;;;5011194;28;19914;-80
2023/07/08 13:23:07;;;;;;;;;;;30.70;34.50;;;;;;5011491;28;19944;-81
2023/07/08 13:25:33;;;;;;;;;;;30.80;32.60;;;;;;4988546;28;19970;-80
2023/07/08 13:28:00;;;;;;;;;;;30.90;34.70;;;;;;5003522;28;19913;-80
2023/07/08 13:30:27;;;;;;;;;;;31.00;33.90;;;;;;5011060;28;19913;-80
2023/07/08 13:32:53;;;;;;;;;;;31.00;34.50;;;;;;4999916;28;19925;-80
2023/07/08 13:35:36;;;;;;;;;;;31.00;37.30;;;;;;4991360;28;19937;-79
2023/07/08 13:38:02;;;;;;;;;;;31.00;34.70;;;;;;4991049;28;19920;-80
2023/07/08 13:40:28;;;;;;;;;;;31.00;32.50;;;;;;4995966;28;20393;-80
2023/07/08 13:42:54;;;;;;;;;;;30.80;33.30;;;;;;4995131;28;19913;-80
2023/07/08 13:45:27;;;;;;;;;;;30.80;35.30;;;;;;4987350;28;20020;-80
2023/07/08 13:48:00;;;;;;;;;;;30.90;34.90;;;;;;4994175;28;19967;-79
2023/07/08 13:50:28;;;;;;;;;;;30.90;35.40;;;;;;5009143;28;20008;-80
2023/07/08 13:52:55;;;;;;;;;;;31.00;37.40;;;;;;5017414;28;19917;-81
2023/07/08 13:55:22;;;;;;;;;;;31.10;34.70;;;;;;5018708;28;19932;-79
2023/07/08 13:57:55;;;;;;;;;;;31.10;32.70;;;;;;4995430;28;19920;-80
2023/07/08 14:00:20;;;;;;;;;;;31.00;33.50;;;;;;5009591;28;19922;-80
2023/07/08 14:02:46;;;;;;;;;;;31.10;33.00;;;;;;5037259;28;19920;-81
2023/07/08 14:05:13;;;;;;;;;;;31.40;34.40;;;;;;5041909;28;19912;-79
2023/07/08 14:07:39;;;;;;;;;;;31.50;34.80;;;;;;5079587;28;19912;-79
2023/07/08 14:10:12;;;;;;;;;;;31.60;36.10;;;;;;5095499;28;19912;-79
2023/07/08 14:12:38;;;;;;;;;;;31.60;35.10;;;;;;5111073;28;19911;-80
2023/07/08 14:15:07;;;;;;;;;;;31.50;35.30;;;;;;5051317;28;19919;-80
2023/07/08 14:17:33;;;;;;;;;;;31.50;33.10;;;;;;5010994;28;19921;-82
2023/07/08 14:19:58;;;;;;;;;;;31.30;33.90;;;;;;5000185;28;19912;-81
2023/07/08 14:22:26;;;;;;;;;;;31.30;37.00;;;;;;5043261;28;19977;-83
2023/07/08 14:24:52;;;;;;;;;;;31.30;34.40;;;;;;5094264;28;20379;-83
2023/07/08 14:27:17;;;;;;;;;;;31.40;33.90;;;;;;5114925;28;19918;-82
2023/07/08 14:29:45;;;;;;;;;;;31.40;36.00;;;;;;5070267;28;19917;-82
2023/07/08 14:32:15;;;;;;;;;;;31.30;35.90;;;;;;5029247;28;19921;-82
2023/07/08 14:34:41;;;;;;;;;;;31.30;36.80;;;;;;5040044;28;19918;-82
2023/07/08 14:37:16;;;;;;;;;;;31.30;35.70;;;;;;5027399;28;19908;-82
2023/07/08 14:39:43;;;;;;;;;;;31.30;38.40;;;;;;5005389;28;19952;-84
2023/07/08 14:42:11;;;;;;;;;;;31.10;38.70;;;;;;5009802;28;19920;-83
2023/07/08 14:44:37;;;;;;;;;;;30.90;39.00;;;;;;4993942;28;19910;-83
2023/07/08 14:47:07;;;;;;;;;;;30.70;39.60;;;;;;5011282;28;19909;-83
2023/07/08 14:49:32;;;;;;;;;;;30.80;34.80;;;;;;5011442;28;19913;-83
2023/07/08 14:51:58;;;;;;;;;;;30.80;34.10;;;;;;5009495;28;19974;-82